Catalina Provider — WDI6530 — position and weather

sailwx.info

Track history (hours):
 
Tides and Currents Weather Stations Pressure Air Temp Water Temp Dewpoint Dewpoint Depression Visibility Wind Speed Wind Dir Waves Ship Positions

Catalina Provider

Owner: Avalon Freight Service LLC, San Pedro, CA. More information available from US FCC via Universal Licensing System and Coast Guard Vessel Documentation Center.

Last reported at 2018-Feb-23 00:45 UTC. Time now 2018-Feb-23 06:48 UTC.
Position N 33°34' W 118°16'.

Length 45 m; draft 1.7 m.

Type: Cargo ship. MMSI: 367719640.

Date/timePositionNaut miles runAvg speedWind from/ knotsBaromVisibWave heightAir tempDewpointWater temp
2018-Feb-23 00:45N 33°34' W 118°16'2 9.0
2018-Feb-23 00:30N 33°37' W 118°15'4 9.1
2018-Feb-23 00:00N 33°41' W 118°15'4 7.1
2018-Feb-22 23:30N 33°44' W 118°17'1 0.0
2018-Feb-22 09:39N 33°45' W 118°16'0 1.6
2018-Feb-22 09:31N 33°45' W 118°16'3 5.8
2018-Feb-22 09:00N 33°42' W 118°15'5 0.8
2018-Feb-22 01:52N 33°37' W 118°15'3 8.2
2018-Feb-22 01:30N 33°40' W 118°15'4 7.4
2018-Feb-22 01:00N 33°43' W 118°16'2 3.7
2018-Feb-22 00:30N 33°45' W 118°16'0 0.0
2018-Feb-21 09:02N 33°45' W 118°16'0 1.5
2018-Feb-21 09:00N 33°45' W 118°16'2 4.2
2018-Feb-21 08:30N 33°43' W 118°16'8 1.2
2018-Feb-21 01:47N 33°35' W 118°15'2 8.5
2018-Feb-21 01:30N 33°37' W 118°15'4 8.3
2018-Feb-21 01:00N 33°41' W 118°15'3 6.8
2018-Feb-21 00:30N 33°44' W 118°17'  
2018-Feb-17 08:20N 33°45' W 118°16'2 5.5
2018-Feb-17 08:00N 33°43' W 118°16'4 7.7
2018-Feb-17 07:30N 33°39' W 118°15'4 8.3
2018-Feb-17 07:01N 33°35' W 118°15'4 8.3
2018-Feb-17 06:30N 33°31' W 118°16'4 8.2
2018-Feb-17 06:00N 33°27' W 118°17'4 8.3
2018-Feb-17 05:29N 33°23' W 118°18'3 5.3
2018-Feb-17 04:58N 33°20' W 118°19'2 1.1
2018-Feb-17 02:46N 33°23' W 118°18'2 8.2
2018-Feb-17 02:30N 33°25' W 118°18'6 8.2
2018-Feb-17 01:48N 33°30' W 118°17'3 8.4
2018-Feb-17 01:28N 33°33' W 118°16'4 8.3
2018-Feb-17 01:00N 33°37' W 118°15'4 8.3
2018-Feb-17 00:30N 33°41' W 118°15'4 7.4
2018-Feb-17 00:00N 33°44' W 118°17'1 0.0
2018-Feb-16 09:01N 33°45' W 118°16'0 0.6
2018-Feb-16 09:00N 33°45' W 118°16'2 4.1
2018-Feb-16 08:30N 33°43' W 118°16'5 7.1
2018-Feb-16 07:52N 33°38' W 118°15'3 8.1
2018-Feb-16 07:30N 33°36' W 118°16'4 8.1
2018-Feb-16 06:58N 33°31' W 118°16'4 8.2
2018-Feb-16 06:30N 33°28' W 118°17'5 9.3
2018-Feb-16 06:00N 33°23' W 118°18'3 5.5
2018-Feb-16 05:30N 33°20' W 118°19'0 0.0
2018-Feb-16 05:00N 33°20' W 118°19'0 0.0
2018-Feb-16 04:20N 33°20' W 118°19'0 0.0
2018-Feb-16 04:00N 33°20' W 118°19'1 2.6
2018-Feb-16 03:30N 33°21' W 118°18'8 8.2
2018-Feb-16 02:29N 33°30' W 118°16'4 8.3
2018-Feb-16 01:58N 33°34' W 118°15'4 8.2
2018-Feb-16 01:30N 33°38' W 118°15'4 8.0
2018-Feb-16 01:00N 33°42' W 118°15'3 6.7
2018-Feb-16 00:30N 33°44' W 118°17'1 0.0
2018-Feb-15 08:34N 33°45' W 118°16'0 0.9
2018-Feb-15 08:30N 33°45' W 118°16'3 5.4
2018-Feb-15 08:00N 33°43' W 118°15'21 8.3
2018-Feb-15 05:27N 33°22' W 118°18'11 3.2
2018-Feb-15 01:54N 33°33' W 118°16'4 8.4
2018-Feb-15 01:29N 33°36' W 118°16'4 8.3
2018-Feb-15 01:01N 33°40' W 118°15'4 7.2
2018-Feb-15 00:30N 33°44' W 118°16'1 0.1
2018-Feb-14 08:06N 33°45' W 118°16'0 1.3
2018-Feb-14 08:00N 33°45' W 118°16'2 4.7
2018-Feb-14 07:30N 33°43' W 118°15'8 1.4
2018-Feb-14 01:41N 33°35' W 118°16'1 8.3
2018-Feb-14 01:30N 33°36' W 118°16'4 8.2
2018-Feb-14 01:01N 33°40' W 118°15'3 6.8
2018-Feb-14 00:31N 33°44' W 118°16'1 0.1
2018-Feb-13 08:30N 33°45' W 118°16'2 4.1
2018-Feb-13 08:00N 33°43' W 118°16'8 1.2
2018-Feb-13 01:25N 33°35' W 118°16'3 7.7
2018-Feb-13 01:00N 33°38' W 118°16'  
Track history (hours):
 
Tides and Currents Weather Stations Pressure Air Temp Water Temp Dewpoint Dewpoint Depression Visibility Wind Speed Wind Dir Waves Ship Positions

Catalina Provider

Owner: Avalon Freight Service LLC, San Pedro, CA. More information available from US FCC via Universal Licensing System and Coast Guard Vessel Documentation Center.

Last reported at 2018-Feb-23 00:45 UTC. Time now 2018-Feb-23 06:48 UTC.
Position N 33°34' W 118°16'.

Length 45 m; draft 1.7 m.

Type: Cargo ship. MMSI: 367719640.

Date/timePositionNaut miles runAvg speedWind from/ knotsBaromVisibWave heightAir tempDewpointWater temp
2018-Feb-23 00:45N 33°34' W 118°16'2 9.0
2018-Feb-23 00:30N 33°37' W 118°15'4 9.1
2018-Feb-23 00:00N 33°41' W 118°15'4 7.1
2018-Feb-22 23:30N 33°44' W 118°17'1 0.0
2018-Feb-22 09:39N 33°45' W 118°16'0 1.6
2018-Feb-22 09:31N 33°45' W 118°16'3 5.8
2018-Feb-22 09:00N 33°42' W 118°15'5 0.8
2018-Feb-22 01:52N 33°37' W 118°15'3 8.2
2018-Feb-22 01:30N 33°40' W 118°15'4 7.4
2018-Feb-22 01:00N 33°43' W 118°16'2 3.7
2018-Feb-22 00:30N 33°45' W 118°16'0 0.0
2018-Feb-21 09:02N 33°45' W 118°16'0 1.5
2018-Feb-21 09:00N 33°45' W 118°16'2 4.2
2018-Feb-21 08:30N 33°43' W 118°16'8 1.2
2018-Feb-21 01:47N 33°35' W 118°15'2 8.5
2018-Feb-21 01:30N 33°37' W 118°15'4 8.3
2018-Feb-21 01:00N 33°41' W 118°15'3 6.8
2018-Feb-21 00:30N 33°44' W 118°17'  
2018-Feb-17 08:20N 33°45' W 118°16'2 5.5
2018-Feb-17 08:00N 33°43' W 118°16'4 7.7
2018-Feb-17 07:30N 33°39' W 118°15'4 8.3
2018-Feb-17 07:01N 33°35' W 118°15'4 8.3
2018-Feb-17 06:30N 33°31' W 118°16'4 8.2
2018-Feb-17 06:00N 33°27' W 118°17'4 8.3
2018-Feb-17 05:29N 33°23' W 118°18'3 5.3
2018-Feb-17 04:58N 33°20' W 118°19'2 1.1
2018-Feb-17 02:46N 33°23' W 118°18'2 8.2
2018-Feb-17 02:30N 33°25' W 118°18'6 8.2
2018-Feb-17 01:48N 33°30' W 118°17'3 8.4
2018-Feb-17 01:28N 33°33' W 118°16'4 8.3
2018-Feb-17 01:00N 33°37' W 118°15'4 8.3
2018-Feb-17 00:30N 33°41' W 118°15'4 7.4
2018-Feb-17 00:00N 33°44' W 118°17'1 0.0
2018-Feb-16 09:01N 33°45' W 118°16'0 0.6
2018-Feb-16 09:00N 33°45' W 118°16'2 4.1
2018-Feb-16 08:30N 33°43' W 118°16'5 7.1
2018-Feb-16 07:52N 33°38' W 118°15'3 8.1
2018-Feb-16 07:30N 33°36' W 118°16'4 8.1
2018-Feb-16 06:58N 33°31' W 118°16'4 8.2
2018-Feb-16 06:30N 33°28' W 118°17'5 9.3
2018-Feb-16 06:00N 33°23' W 118°18'3 5.5
2018-Feb-16 05:30N 33°20' W 118°19'0 0.0
2018-Feb-16 05:00N 33°20' W 118°19'0 0.0
2018-Feb-16 04:20N 33°20' W 118°19'0 0.0
2018-Feb-16 04:00N 33°20' W 118°19'1 2.6
2018-Feb-16 03:30N 33°21' W 118°18'8 8.2
2018-Feb-16 02:29N 33°30' W 118°16'4 8.3
2018-Feb-16 01:58N 33°34' W 118°15'4 8.2
2018-Feb-16 01:30N 33°38' W 118°15'4 8.0
2018-Feb-16 01:00N 33°42' W 118°15'3 6.7
2018-Feb-16 00:30N 33°44' W 118°17'1 0.0
2018-Feb-15 08:34N 33°45' W 118°16'0 0.9
2018-Feb-15 08:30N 33°45' W 118°16'3 5.4
2018-Feb-15 08:00N 33°43' W 118°15'21 8.3
2018-Feb-15 05:27N 33°22' W 118°18'11 3.2
2018-Feb-15 01:54N 33°33' W 118°16'4 8.4
2018-Feb-15 01:29N 33°36' W 118°16'4 8.3
2018-Feb-15 01:01N 33°40' W 118°15'4 7.2
2018-Feb-15 00:30N 33°44' W 118°16'1 0.1
2018-Feb-14 08:06N 33°45' W 118°16'0 1.3
2018-Feb-14 08:00N 33°45' W 118°16'2 4.7
2018-Feb-14 07:30N 33°43' W 118°15'8 1.4
2018-Feb-14 01:41N 33°35' W 118°16'1 8.3
2018-Feb-14 01:30N 33°36' W 118°16'4 8.2
2018-Feb-14 01:01N 33°40' W 118°15'3 6.8
2018-Feb-14 00:31N 33°44' W 118°16'1 0.1
2018-Feb-13 08:30N 33°45' W 118°16'2 4.1
2018-Feb-13 08:00N 33°43' W 118°16'8 1.2
2018-Feb-13 01:25N 33°35' W 118°16'3 7.7
2018-Feb-13 01:00N 33°38' W 118°16'  

Dump ship's entire track history